sensor_id;sensor_type;location;lat;lon;timestamp;P1;durP1;ratioP1;P2;durP2;ratioP2
10677;SDS011;5387;48.722;9.110;2024-02-21T00:01:28;9.27;;;3.40;;
10677;SDS011;5387;48.722;9.110;2024-02-21T00:03:56;9.13;;;3.27;;
10677;SDS011;5387;48.722;9.110;2024-02-21T00:06:23;6.90;;;3.50;;
10677;SDS011;5387;48.722;9.110;2024-02-21T00:08:51;8.40;;;2.90;;
10677;SDS011;5387;48.722;9.110;2024-02-21T00:11:17;8.80;;;3.07;;
10677;SDS011;5387;48.722;9.110;2024-02-21T00:13:44;6.27;;;3.00;;
10677;SDS011;5387;48.722;9.110;2024-02-21T00:16:13;15.03;;;3.37;;
10677;SDS011;5387;48.722;9.110;2024-02-21T00:18:41;7.23;;;3.27;;
10677;SDS011;5387;48.722;9.110;2024-02-21T00:21:07;12.07;;;3.43;;
10677;SDS011;5387;48.722;9.110;2024-02-21T00:23:34;8.10;;;2.97;;
10677;SDS011;5387;48.722;9.110;2024-02-21T00:26:01;6.93;;;2.90;;
10677;SDS011;5387;48.722;9.110;2024-02-21T00:28:28;12.73;;;3.40;;
10677;SDS011;5387;48.722;9.110;2024-02-21T00:30:55;9.20;;;3.13;;
10677;SDS011;5387;48.722;9.110;2024-02-21T00:33:23;6.77;;;2.30;;
10677;SDS011;5387;48.722;9.110;2024-02-21T00:35:49;6.73;;;2.97;;
10677;SDS011;5387;48.722;9.110;2024-02-21T00:38:16;8.73;;;2.73;;
10677;SDS011;5387;48.722;9.110;2024-02-21T00:40:43;7.33;;;3.20;;
10677;SDS011;5387;48.722;9.110;2024-02-21T00:43:10;4.73;;;2.77;;
10677;SDS011;5387;48.722;9.110;2024-02-21T00:45:36;10.90;;;3.30;;
10677;SDS011;5387;48.722;9.110;2024-02-21T00:48:04;9.53;;;2.87;;
10677;SDS011;5387;48.722;9.110;2024-02-21T00:50:32;5.97;;;2.80;;
10677;SDS011;5387;48.722;9.110;2024-02-21T00:52:59;10.43;;;2.93;;
10677;SDS011;5387;48.722;9.110;2024-02-21T00:55:26;13.90;;;3.70;;
10677;SDS011;5387;48.722;9.110;2024-02-21T00:57:53;7.47;;;3.43;;
10677;SDS011;5387;48.722;9.110;2024-02-21T01:00:19;7.50;;;2.97;;
10677;SDS011;5387;48.722;9.110;2024-02-21T01:02:47;7.40;;;3.03;;
10677;SDS011;5387;48.722;9.110;2024-02-21T01:05:13;8.17;;;3.20;;
10677;SDS011;5387;48.722;9.110;2024-02-21T01:07:41;6.00;;;2.63;;
10677;SDS011;5387;48.722;9.110;2024-02-21T01:10:08;5.73;;;2.80;;
10677;SDS011;5387;48.722;9.110;2024-02-21T01:12:35;9.90;;;3.23;;
10677;SDS011;5387;48.722;9.110;2024-02-21T01:15:03;6.70;;;3.50;;
10677;SDS011;5387;48.722;9.110;2024-02-21T01:17:30;6.77;;;2.97;;
10677;SDS011;5387;48.722;9.110;2024-02-21T01:19:57;8.83;;;3.00;;
10677;SDS011;5387;48.722;9.110;2024-02-21T01:22:24;8.87;;;3.30;;
10677;SDS011;5387;48.722;9.110;2024-02-21T01:24:52;9.57;;;3.30;;
10677;SDS011;5387;48.722;9.110;2024-02-21T01:27:19;17.80;;;3.43;;
10677;SDS011;5387;48.722;9.110;2024-02-21T01:29:46;5.93;;;3.20;;
10677;SDS011;5387;48.722;9.110;2024-02-21T01:32:14;9.67;;;3.27;;
10677;SDS011;5387;48.722;9.110;2024-02-21T01:34:41;6.63;;;3.07;;
10677;SDS011;5387;48.722;9.110;2024-02-21T01:37:08;11.03;;;3.07;;
10677;SDS011;5387;48.722;9.110;2024-02-21T01:39:35;6.87;;;3.07;;
10677;SDS011;5387;48.722;9.110;2024-02-21T01:42:03;9.00;;;3.07;;
10677;SDS011;5387;48.722;9.110;2024-02-21T01:44:30;14.60;;;2.73;;
10677;SDS011;5387;48.722;9.110;2024-02-21T01:46:57;14.00;;;3.40;;
10677;SDS011;5387;48.722;9.110;2024-02-21T01:49:24;9.53;;;3.20;;
10677;SDS011;5387;48.722;9.110;2024-02-21T01:51:51;9.10;;;2.90;;
10677;SDS011;5387;48.722;9.110;2024-02-21T01:54:19;14.33;;;3.03;;
10677;SDS011;5387;48.722;9.110;2024-02-21T01:56:46;12.60;;;4.23;;
10677;SDS011;5387;48.722;9.110;2024-02-21T01:59:15;5.60;;;2.83;;
10677;SDS011;5387;48.722;9.110;2024-02-21T02:01:42;4.73;;;2.57;;
10677;SDS011;5387;48.722;9.110;2024-02-21T02:04:09;10.40;;;2.80;;
10677;SDS011;5387;48.722;9.110;2024-02-21T02:06:36;15.50;;;2.97;;
10677;SDS011;5387;48.722;9.110;2024-02-21T02:09:03;8.53;;;2.77;;
10677;SDS011;5387;48.722;9.110;2024-02-21T02:11:31;9.17;;;3.47;;
10677;SDS011;5387;48.722;9.110;2024-02-21T02:13:58;6.73;;;2.50;;
10677;SDS011;5387;48.722;9.110;2024-02-21T02:16:26;6.43;;;3.00;;
10677;SDS011;5387;48.722;9.110;2024-02-21T02:18:53;6.43;;;3.40;;
10677;SDS011;5387;48.722;9.110;2024-02-21T02:21:23;8.47;;;3.20;;
10677;SDS011;5387;48.722;9.110;2024-02-21T02:23:56;14.50;;;3.27;;
10677;SDS011;5387;48.722;9.110;2024-02-21T02:26:23;9.13;;;2.97;;
10677;SDS011;5387;48.722;9.110;2024-02-21T02:28:50;4.90;;;2.83;;
10677;SDS011;5387;48.722;9.110;2024-02-21T02:31:17;6.20;;;2.67;;
10677;SDS011;5387;48.722;9.110;2024-02-21T02:33:43;7.03;;;2.37;;
10677;SDS011;5387;48.722;9.110;2024-02-21T02:36:10;4.30;;;2.30;;
10677;SDS011;5387;48.722;9.110;2024-02-21T02:38:37;13.17;;;2.93;;
10677;SDS011;5387;48.722;9.110;2024-02-21T02:41:05;9.10;;;3.13;;
10677;SDS011;5387;48.722;9.110;2024-02-21T02:43:32;5.90;;;2.77;;
10677;SDS011;5387;48.722;9.110;2024-02-21T02:45:59;7.37;;;2.60;;
10677;SDS011;5387;48.722;9.110;2024-02-21T02:48:25;8.70;;;2.97;;
10677;SDS011;5387;48.722;9.110;2024-02-21T02:50:52;5.83;;;2.77;;
10677;SDS011;5387;48.722;9.110;2024-02-21T02:53:19;9.93;;;3.27;;
10677;SDS011;5387;48.722;9.110;2024-02-21T02:55:46;7.67;;;2.80;;
10677;SDS011;5387;48.722;9.110;2024-02-21T02:58:14;6.53;;;3.27;;
10677;SDS011;5387;48.722;9.110;2024-02-21T03:00:40;2.73;;;2.37;;
10677;SDS011;5387;48.722;9.110;2024-02-21T03:03:07;6.60;;;2.63;;
10677;SDS011;5387;48.722;9.110;2024-02-21T03:05:34;3.77;;;2.53;;
10677;SDS011;5387;48.722;9.110;2024-02-21T03:08:01;13.97;;;4.40;;
10677;SDS011;5387;48.722;9.110;2024-02-21T03:10:31;10.63;;;2.37;;
10677;SDS011;5387;48.722;9.110;2024-02-21T03:12:58;4.30;;;2.37;;
10677;SDS011;5387;48.722;9.110;2024-02-21T03:15:27;7.67;;;2.83;;
10677;SDS011;5387;48.722;9.110;2024-02-21T03:17:53;8.47;;;3.07;;
10677;SDS011;5387;48.722;9.110;2024-02-21T03:20:20;7.00;;;2.77;;
10677;SDS011;5387;48.722;9.110;2024-02-21T03:22:47;4.97;;;2.60;;
10677;SDS011;5387;48.722;9.110;2024-02-21T03:25:14;5.00;;;2.60;;
10677;SDS011;5387;48.722;9.110;2024-02-21T03:27:41;6.23;;;2.73;;
10677;SDS011;5387;48.722;9.110;2024-02-21T03:30:08;11.90;;;3.70;;
10677;SDS011;5387;48.722;9.110;2024-02-21T03:32:37;11.63;;;3.20;;
10677;SDS011;5387;48.722;9.110;2024-02-21T03:35:04;8.93;;;2.53;;
10677;SDS011;5387;48.722;9.110;2024-02-21T03:37:31;6.63;;;3.27;;
10677;SDS011;5387;48.722;9.110;2024-02-21T03:39:58;9.63;;;2.70;;
10677;SDS011;5387;48.722;9.110;2024-02-21T03:42:24;6.27;;;2.83;;
10677;SDS011;5387;48.722;9.110;2024-02-21T03:44:54;8.47;;;2.90;;
10677;SDS011;5387;48.722;9.110;2024-02-21T03:47:21;6.50;;;2.90;;
10677;SDS011;5387;48.722;9.110;2024-02-21T03:49:49;9.70;;;2.73;;
10677;SDS011;5387;48.722;9.110;2024-02-21T03:52:16;8.93;;;3.10;;
10677;SDS011;5387;48.722;9.110;2024-02-21T03:54:43;9.20;;;2.70;;
10677;SDS011;5387;48.722;9.110;2024-02-21T03:57:09;7.47;;;2.80;;
10677;SDS011;5387;48.722;9.110;2024-02-21T03:59:36;6.30;;;2.70;;
10677;SDS011;5387;48.722;9.110;2024-02-21T04:02:05;7.13;;;3.17;;
10677;SDS011;5387;48.722;9.110;2024-02-21T04:04:33;4.63;;;2.73;;
10677;SDS011;5387;48.722;9.110;2024-02-21T04:07:03;6.17;;;2.90;;
10677;SDS011;5387;48.722;9.110;2024-02-21T04:09:31;10.17;;;2.60;;
10677;SDS011;5387;48.722;9.110;2024-02-21T04:11:58;12.50;;;3.17;;
10677;SDS011;5387;48.722;9.110;2024-02-21T04:14:25;7.23;;;2.80;;
10677;SDS011;5387;48.722;9.110;2024-02-21T04:16:52;5.23;;;2.33;;
10677;SDS011;5387;48.722;9.110;2024-02-21T04:19:19;9.83;;;3.00;;
10677;SDS011;5387;48.722;9.110;2024-02-21T04:21:46;7.47;;;2.53;;
10677;SDS011;5387;48.722;9.110;2024-02-21T04:24:14;5.83;;;2.73;;
10677;SDS011;5387;48.722;9.110;2024-02-21T04:26:41;5.90;;;2.27;;
10677;SDS011;5387;48.722;9.110;2024-02-21T04:29:08;5.03;;;2.00;;
10677;SDS011;5387;48.722;9.110;2024-02-21T04:31:35;6.57;;;2.53;;
10677;SDS011;5387;48.722;9.110;2024-02-21T04:34:02;5.17;;;2.47;;
10677;SDS011;5387;48.722;9.110;2024-02-21T04:36:29;7.13;;;2.47;;
10677;SDS011;5387;48.722;9.110;2024-02-21T04:38:55;5.00;;;3.00;;
10677;SDS011;5387;48.722;9.110;2024-02-21T04:41:24;12.30;;;6.03;;
10677;SDS011;5387;48.722;9.110;2024-02-21T04:43:51;8.67;;;4.77;;
10677;SDS011;5387;48.722;9.110;2024-02-21T04:46:17;8.83;;;3.53;;
10677;SDS011;5387;48.722;9.110;2024-02-21T04:48:44;8.93;;;2.33;;
10677;SDS011;5387;48.722;9.110;2024-02-21T04:51:11;6.47;;;2.67;;
10677;SDS011;5387;48.722;9.110;2024-02-21T04:53:39;4.70;;;2.50;;
10677;SDS011;5387;48.722;9.110;2024-02-21T04:56:06;4.50;;;2.60;;
10677;SDS011;5387;48.722;9.110;2024-02-21T04:58:37;6.10;;;2.80;;
10677;SDS011;5387;48.722;9.110;2024-02-21T05:01:04;5.97;;;2.40;;
10677;SDS011;5387;48.722;9.110;2024-02-21T05:03:31;7.57;;;2.50;;
10677;SDS011;5387;48.722;9.110;2024-02-21T05:05:58;9.07;;;2.70;;
10677;SDS011;5387;48.722;9.110;2024-02-21T05:08:25;5.67;;;2.17;;
10677;SDS011;5387;48.722;9.110;2024-02-21T05:10:52;5.03;;;2.37;;
10677;SDS011;5387;48.722;9.110;2024-02-21T05:13:19;6.33;;;2.40;;
10677;SDS011;5387;48.722;9.110;2024-02-21T05:15:47;8.90;;;2.93;;
10677;SDS011;5387;48.722;9.110;2024-02-21T05:18:14;8.70;;;2.57;;
10677;SDS011;5387;48.722;9.110;2024-02-21T05:20:41;11.10;;;2.40;;
10677;SDS011;5387;48.722;9.110;2024-02-21T05:23:08;9.40;;;2.90;;
10677;SDS011;5387;48.722;9.110;2024-02-21T05:25:34;4.70;;;2.50;;
10677;SDS011;5387;48.722;9.110;2024-02-21T05:28:01;8.60;;;3.50;;
10677;SDS011;5387;48.722;9.110;2024-02-21T05:30:28;12.20;;;5.10;;
10677;SDS011;5387;48.722;9.110;2024-02-21T05:32:57;13.13;;;5.70;;
10677;SDS011;5387;48.722;9.110;2024-02-21T05:35:26;14.50;;;5.70;;
10677;SDS011;5387;48.722;9.110;2024-02-21T05:37:53;8.37;;;4.07;;
10677;SDS011;5387;48.722;9.110;2024-02-21T05:40:20;7.90;;;2.57;;
10677;SDS011;5387;48.722;9.110;2024-02-21T05:42:47;4.70;;;2.67;;
10677;SDS011;5387;48.722;9.110;2024-02-21T05:45:13;2.27;;;2.03;;
10677;SDS011;5387;48.722;9.110;2024-02-21T05:47:41;5.47;;;2.20;;
10677;SDS011;5387;48.722;9.110;2024-02-21T05:50:09;5.67;;;2.60;;
10677;SDS011;5387;48.722;9.110;2024-02-21T05:52:36;6.10;;;2.50;;
10677;SDS011;5387;48.722;9.110;2024-02-21T05:55:04;4.57;;;2.70;;
10677;SDS011;5387;48.722;9.110;2024-02-21T05:57:33;3.93;;;2.33;;
10677;SDS011;5387;48.722;9.110;2024-02-21T06:00:02;7.17;;;2.00;;
10677;SDS011;5387;48.722;9.110;2024-02-21T06:02:31;4.57;;;2.30;;
10677;SDS011;5387;48.722;9.110;2024-02-21T06:04:58;5.60;;;2.47;;
10677;SDS011;5387;48.722;9.110;2024-02-21T06:07:26;9.57;;;1.97;;
10677;SDS011;5387;48.722;9.110;2024-02-21T06:09:52;10.40;;;2.63;;
10677;SDS011;5387;48.722;9.110;2024-02-21T06:12:19;4.40;;;2.10;;
10677;SDS011;5387;48.722;9.110;2024-02-21T06:14:46;9.67;;;2.83;;
10677;SDS011;5387;48.722;9.110;2024-02-21T06:17:13;8.17;;;2.60;;
10677;SDS011;5387;48.722;9.110;2024-02-21T06:19:40;5.30;;;2.47;;
10677;SDS011;5387;48.722;9.110;2024-02-21T06:22:09;10.23;;;2.87;;
10677;SDS011;5387;48.722;9.110;2024-02-21T06:24:37;5.43;;;2.60;;
10677;SDS011;5387;48.722;9.110;2024-02-21T06:27:04;5.53;;;3.07;;
10677;SDS011;5387;48.722;9.110;2024-02-21T06:29:32;5.13;;;2.80;;
10677;SDS011;5387;48.722;9.110;2024-02-21T06:31:59;8.00;;;3.90;;
10677;SDS011;5387;48.722;9.110;2024-02-21T06:34:25;8.87;;;3.93;;
10677;SDS011;5387;48.722;9.110;2024-02-21T06:36:52;10.63;;;4.00;;
10677;SDS011;5387;48.722;9.110;2024-02-21T06:39:19;6.80;;;4.10;;
10677;SDS011;5387;48.722;9.110;2024-02-21T06:41:49;8.23;;;3.27;;
10677;SDS011;5387;48.722;9.110;2024-02-21T06:44:16;4.30;;;3.07;;
10677;SDS011;5387;48.722;9.110;2024-02-21T06:46:43;6.77;;;2.90;;
10677;SDS011;5387;48.722;9.110;2024-02-21T06:49:09;7.63;;;3.47;;
10677;SDS011;5387;48.722;9.110;2024-02-21T06:51:40;5.80;;;2.53;;
10677;SDS011;5387;48.722;9.110;2024-02-21T06:54:07;3.60;;;2.20;;
10677;SDS011;5387;48.722;9.110;2024-02-21T06:56:34;5.53;;;2.10;;
10677;SDS011;5387;48.722;9.110;2024-02-21T06:59:03;6.40;;;2.00;;
10677;SDS011;5387;48.722;9.110;2024-02-21T07:01:30;6.70;;;2.40;;
10677;SDS011;5387;48.722;9.110;2024-02-21T07:03:57;9.27;;;2.57;;
10677;SDS011;5387;48.722;9.110;2024-02-21T07:06:24;9.77;;;2.93;;
10677;SDS011;5387;48.722;9.110;2024-02-21T07:08:50;4.00;;;2.77;;
10677;SDS011;5387;48.722;9.110;2024-02-21T07:11:17;7.27;;;2.73;;
10677;SDS011;5387;48.722;9.110;2024-02-21T07:13:44;11.47;;;3.37;;
10677;SDS011;5387;48.722;9.110;2024-02-21T07:16:12;4.43;;;2.30;;
10677;SDS011;5387;48.722;9.110;2024-02-21T07:18:39;5.20;;;2.43;;
10677;SDS011;5387;48.722;9.110;2024-02-21T07:21:06;2.60;;;2.23;;
10677;SDS011;5387;48.722;9.110;2024-02-21T07:23:32;12.37;;;2.37;;
10677;SDS011;5387;48.722;9.110;2024-02-21T07:26:01;6.37;;;2.40;;
10677;SDS011;5387;48.722;9.110;2024-02-21T07:28:28;5.17;;;2.33;;
10677;SDS011;5387;48.722;9.110;2024-02-21T07:30:54;5.93;;;2.57;;
10677;SDS011;5387;48.722;9.110;2024-02-21T07:33:22;4.63;;;2.27;;
10677;SDS011;5387;48.722;9.110;2024-02-21T07:35:49;12.20;;;2.20;;
10677;SDS011;5387;48.722;9.110;2024-02-21T07:38:16;10.90;;;2.53;;
10677;SDS011;5387;48.722;9.110;2024-02-21T07:40:44;7.60;;;2.10;;
10677;SDS011;5387;48.722;9.110;2024-02-21T07:43:10;8.77;;;2.33;;
10677;SDS011;5387;48.722;9.110;2024-02-21T07:45:37;9.30;;;2.20;;
10677;SDS011;5387;48.722;9.110;2024-02-21T07:48:04;9.50;;;2.87;;
10677;SDS011;5387;48.722;9.110;2024-02-21T07:50:33;8.63;;;2.53;;
10677;SDS011;5387;48.722;9.110;2024-02-21T07:53:00;3.80;;;2.27;;
10677;SDS011;5387;48.722;9.110;2024-02-21T07:55:27;5.73;;;2.30;;
10677;SDS011;5387;48.722;9.110;2024-02-21T07:57:54;3.63;;;1.97;;
10677;SDS011;5387;48.722;9.110;2024-02-21T08:00:21;8.73;;;2.43;;
10677;SDS011;5387;48.722;9.110;2024-02-21T08:02:48;7.27;;;3.07;;
10677;SDS011;5387;48.722;9.110;2024-02-21T08:05:15;10.37;;;2.60;;
10677;SDS011;5387;48.722;9.110;2024-02-21T08:07:43;10.43;;;2.73;;
10677;SDS011;5387;48.722;9.110;2024-02-21T08:10:10;9.60;;;2.23;;
10677;SDS011;5387;48.722;9.110;2024-02-21T08:12:37;4.87;;;2.10;;
10677;SDS011;5387;48.722;9.110;2024-02-21T08:15:05;12.70;;;3.00;;
10677;SDS011;5387;48.722;9.110;2024-02-21T08:17:33;7.47;;;2.47;;
10677;SDS011;5387;48.722;9.110;2024-02-21T08:20:00;7.03;;;2.70;;
10677;SDS011;5387;48.722;9.110;2024-02-21T08:22:27;5.83;;;2.67;;
10677;SDS011;5387;48.722;9.110;2024-02-21T08:24:55;6.07;;;2.63;;
10677;SDS011;5387;48.722;9.110;2024-02-21T08:27:22;6.47;;;2.60;;
10677;SDS011;5387;48.722;9.110;2024-02-21T08:29:48;3.43;;;1.80;;
10677;SDS011;5387;48.722;9.110;2024-02-21T08:32:15;4.70;;;2.37;;
10677;SDS011;5387;48.722;9.110;2024-02-21T08:34:42;8.03;;;2.03;;
10677;SDS011;5387;48.722;9.110;2024-02-21T08:37:09;5.03;;;2.40;;
10677;SDS011;5387;48.722;9.110;2024-02-21T08:39:36;7.57;;;2.43;;
10677;SDS011;5387;48.722;9.110;2024-02-21T08:42:05;4.23;;;1.63;;
10677;SDS011;5387;48.722;9.110;2024-02-21T08:44:32;5.47;;;2.07;;
10677;SDS011;5387;48.722;9.110;2024-02-21T08:46:59;5.73;;;2.13;;
10677;SDS011;5387;48.722;9.110;2024-02-21T08:49:28;4.73;;;1.93;;
10677;SDS011;5387;48.722;9.110;2024-02-21T08:51:56;5.73;;;2.63;;
10677;SDS011;5387;48.722;9.110;2024-02-21T08:54:23;7.07;;;2.20;;
10677;SDS011;5387;48.722;9.110;2024-02-21T08:56:49;8.83;;;2.47;;
10677;SDS011;5387;48.722;9.110;2024-02-21T08:59:18;4.47;;;2.40;;
10677;SDS011;5387;48.722;9.110;2024-02-21T09:01:45;3.83;;;1.93;;
10677;SDS011;5387;48.722;9.110;2024-02-21T09:04:12;4.27;;;1.77;;
10677;SDS011;5387;48.722;9.110;2024-02-21T09:06:41;5.50;;;2.13;;
10677;SDS011;5387;48.722;9.110;2024-02-21T09:09:07;4.20;;;1.83;;
10677;SDS011;5387;48.722;9.110;2024-02-21T09:11:34;4.80;;;1.63;;
10677;SDS011;5387;48.722;9.110;2024-02-21T09:14:02;5.70;;;2.27;;
10677;SDS011;5387;48.722;9.110;2024-02-21T09:16:30;6.40;;;2.23;;
10677;SDS011;5387;48.722;9.110;2024-02-21T09:18:58;5.47;;;2.30;;
10677;SDS011;5387;48.722;9.110;2024-02-21T09:21:25;6.60;;;2.30;;
10677;SDS011;5387;48.722;9.110;2024-02-21T09:23:53;7.40;;;2.07;;
10677;SDS011;5387;48.722;9.110;2024-02-21T09:26:19;5.17;;;2.07;;
10677;SDS011;5387;48.722;9.110;2024-02-21T09:28:46;7.43;;;2.17;;
10677;SDS011;5387;48.722;9.110;2024-02-21T09:31:13;5.60;;;1.93;;
10677;SDS011;5387;48.722;9.110;2024-02-21T09:33:41;6.60;;;1.93;;
10677;SDS011;5387;48.722;9.110;2024-02-21T09:36:08;7.50;;;2.20;;
10677;SDS011;5387;48.722;9.110;2024-02-21T09:38:35;6.23;;;2.30;;
10677;SDS011;5387;48.722;9.110;2024-02-21T09:41:04;6.67;;;2.20;;
10677;SDS011;5387;48.722;9.110;2024-02-21T09:43:40;4.03;;;1.90;;
10677;SDS011;5387;48.722;9.110;2024-02-21T09:46:08;6.00;;;1.83;;
10677;SDS011;5387;48.722;9.110;2024-02-21T09:48:49;6.17;;;2.17;;
10677;SDS011;5387;48.722;9.110;2024-02-21T09:51:30;5.03;;;2.13;;
10677;SDS011;5387;48.722;9.110;2024-02-21T09:53:58;7.10;;;1.93;;
10677;SDS011;5387;48.722;9.110;2024-02-21T09:56:28;4.83;;;2.20;;
10677;SDS011;5387;48.722;9.110;2024-02-21T09:58:55;2.67;;;1.73;;
10677;SDS011;5387;48.722;9.110;2024-02-21T10:01:23;5.47;;;1.90;;
10677;SDS011;5387;48.722;9.110;2024-02-21T10:03:51;2.23;;;1.80;;
10677;SDS011;5387;48.722;9.110;2024-02-21T10:06:18;4.43;;;2.07;;
10677;SDS011;5387;48.722;9.110;2024-02-21T10:08:51;5.47;;;2.27;;
10677;SDS011;5387;48.722;9.110;2024-02-21T10:11:21;4.93;;;2.43;;
10677;SDS011;5387;48.722;9.110;2024-02-21T10:13:49;5.37;;;1.83;;
10677;SDS011;5387;48.722;9.110;2024-02-21T10:16:16;3.53;;;2.27;;
10677;SDS011;5387;48.722;9.110;2024-02-21T10:18:43;8.90;;;2.00;;
10677;SDS011;5387;48.722;9.110;2024-02-21T10:21:11;4.97;;;1.90;;
10677;SDS011;5387;48.722;9.110;2024-02-21T10:23:42;3.63;;;1.60;;
10677;SDS011;5387;48.722;9.110;2024-02-21T10:26:09;4.50;;;1.97;;
10677;SDS011;5387;48.722;9.110;2024-02-21T10:28:36;5.50;;;1.83;;
10677;SDS011;5387;48.722;9.110;2024-02-21T10:31:07;5.20;;;1.90;;
10677;SDS011;5387;48.722;9.110;2024-02-21T10:33:34;4.90;;;2.53;;
10677;SDS011;5387;48.722;9.110;2024-02-21T10:36:07;4.43;;;2.10;;
10677;SDS011;5387;48.722;9.110;2024-02-21T10:38:37;3.30;;;1.90;;
10677;SDS011;5387;48.722;9.110;2024-02-21T10:41:04;5.47;;;1.90;;
10677;SDS011;5387;48.722;9.110;2024-02-21T10:43:33;3.53;;;2.07;;
10677;SDS011;5387;48.722;9.110;2024-02-21T10:46:05;2.37;;;1.40;;
10677;SDS011;5387;48.722;9.110;2024-02-21T10:48:35;1.50;;;1.40;;
10677;SDS011;5387;48.722;9.110;2024-02-21T10:51:12;4.80;;;2.00;;
10677;SDS011;5387;48.722;9.110;2024-02-21T10:53:45;4.27;;;1.80;;
10677;SDS011;5387;48.722;9.110;2024-02-21T10:56:21;4.37;;;1.50;;
10677;SDS011;5387;48.722;9.110;2024-02-21T10:58:51;3.87;;;1.83;;
10677;SDS011;5387;48.722;9.110;2024-02-21T11:01:20;6.73;;;1.97;;
10677;SDS011;5387;48.722;9.110;2024-02-21T11:03:48;6.47;;;2.00;;
10677;SDS011;5387;48.722;9.110;2024-02-21T11:06:18;6.60;;;1.50;;
10677;SDS011;5387;48.722;9.110;2024-02-21T11:08:48;7.03;;;1.93;;
10677;SDS011;5387;48.722;9.110;2024-02-21T11:11:27;4.77;;;1.87;;
10677;SDS011;5387;48.722;9.110;2024-02-21T11:14:03;2.70;;;1.70;;
10677;SDS011;5387;48.722;9.110;2024-02-21T11:16:34;6.50;;;1.57;;
10677;SDS011;5387;48.722;9.110;2024-02-21T11:19:04;3.30;;;1.50;;
10677;SDS011;5387;48.722;9.110;2024-02-21T11:21:32;3.43;;;1.57;;
10677;SDS011;5387;48.722;9.110;2024-02-21T11:24:01;2.53;;;1.40;;
10677;SDS011;5387;48.722;9.110;2024-02-21T11:26:29;5.83;;;1.67;;
10677;SDS011;5387;48.722;9.110;2024-02-21T11:28:57;5.97;;;1.57;;
10677;SDS011;5387;48.722;9.110;2024-02-21T11:31:24;2.47;;;1.47;;
10677;SDS011;5387;48.722;9.110;2024-02-21T11:33:53;1.60;;;1.17;;
10677;SDS011;5387;48.722;9.110;2024-02-21T11:36:24;4.47;;;1.50;;
10677;SDS011;5387;48.722;9.110;2024-02-21T11:38:51;3.57;;;1.50;;
10677;SDS011;5387;48.722;9.110;2024-02-21T11:41:20;6.13;;;1.70;;
10677;SDS011;5387;48.722;9.110;2024-02-21T11:43:48;2.23;;;1.30;;
10677;SDS011;5387;48.722;9.110;2024-02-21T11:46:15;2.40;;;1.70;;
10677;SDS011;5387;48.722;9.110;2024-02-21T11:48:42;4.57;;;1.50;;
10677;SDS011;5387;48.722;9.110;2024-02-21T11:51:20;2.93;;;2.03;;
10677;SDS011;5387;48.722;9.110;2024-02-21T11:53:48;2.40;;;1.30;;
10677;SDS011;5387;48.722;9.110;2024-02-21T11:56:14;2.87;;;1.33;;
10677;SDS011;5387;48.722;9.110;2024-02-21T11:58:43;5.23;;;1.27;;
10677;SDS011;5387;48.722;9.110;2024-02-21T12:01:09;1.83;;;1.20;;
10677;SDS011;5387;48.722;9.110;2024-02-21T12:03:36;2.00;;;1.30;;
10677;SDS011;5387;48.722;9.110;2024-02-21T12:06:03;1.43;;;1.30;;
10677;SDS011;5387;48.722;9.110;2024-02-21T12:08:40;4.83;;;1.20;;
10677;SDS011;5387;48.722;9.110;2024-02-21T12:11:15;1.80;;;1.20;;
10677;SDS011;5387;48.722;9.110;2024-02-21T12:13:47;2.60;;;1.23;;
10677;SDS011;5387;48.722;9.110;2024-02-21T12:16:28;3.70;;;1.33;;
10677;SDS011;5387;48.722;9.110;2024-02-21T12:18:55;1.70;;;1.07;;
10677;SDS011;5387;48.722;9.110;2024-02-21T12:21:25;1.97;;;1.60;;
10677;SDS011;5387;48.722;9.110;2024-02-21T12:23:53;1.50;;;1.30;;
10677;SDS011;5387;48.722;9.110;2024-02-21T12:26:20;4.00;;;1.70;;
10677;SDS011;5387;48.722;9.110;2024-02-21T12:28:49;4.35;;;1.98;;
10677;SDS011;5387;48.722;9.110;2024-02-21T12:31:15;5.20;;;1.60;;
10677;SDS011;5387;48.722;9.110;2024-02-21T12:33:42;1.47;;;1.20;;
10677;SDS011;5387;48.722;9.110;2024-02-21T12:36:09;4.00;;;1.60;;
10677;SDS011;5387;48.722;9.110;2024-02-21T12:38:36;2.30;;;1.20;;
10677;SDS011;5387;48.722;9.110;2024-02-21T12:41:03;1.43;;;1.30;;
10677;SDS011;5387;48.722;9.110;2024-02-21T12:43:30;1.40;;;1.23;;
10677;SDS011;5387;48.722;9.110;2024-02-21T12:45:58;3.17;;;1.70;;
10677;SDS011;5387;48.722;9.110;2024-02-21T12:48:25;1.80;;;1.33;;
10677;SDS011;5387;48.722;9.110;2024-02-21T12:50:52;1.50;;;1.23;;
10677;SDS011;5387;48.722;9.110;2024-02-21T12:53:19;3.33;;;1.57;;
10677;SDS011;5387;48.722;9.110;2024-02-21T12:55:48;4.07;;;1.43;;
10677;SDS011;5387;48.722;9.110;2024-02-21T12:58:14;2.17;;;1.37;;
10677;SDS011;5387;48.722;9.110;2024-02-21T13:00:42;1.80;;;1.40;;
10677;SDS011;5387;48.722;9.110;2024-02-21T13:03:11;5.03;;;1.37;;
10677;SDS011;5387;48.722;9.110;2024-02-21T13:05:38;3.00;;;1.43;;
10677;SDS011;5387;48.722;9.110;2024-02-21T13:08:05;1.90;;;1.03;;
10677;SDS011;5387;48.722;9.110;2024-02-21T13:10:33;1.53;;;1.10;;
10677;SDS011;5387;48.722;9.110;2024-02-21T13:13:00;2.40;;;1.50;;
10677;SDS011;5387;48.722;9.110;2024-02-21T13:15:27;4.00;;;1.30;;
10677;SDS011;5387;48.722;9.110;2024-02-21T13:17:54;1.47;;;1.10;;
10677;SDS011;5387;48.722;9.110;2024-02-21T13:20:23;3.20;;;1.40;;
10677;SDS011;5387;48.722;9.110;2024-02-21T13:22:50;1.00;;;1.00;;
10677;SDS011;5387;48.722;9.110;2024-02-21T13:25:17;3.30;;;1.23;;
10677;SDS011;5387;48.722;9.110;2024-02-21T13:27:46;1.30;;;1.20;;
10677;SDS011;5387;48.722;9.110;2024-02-21T13:30:13;3.63;;;1.30;;
10677;SDS011;5387;48.722;9.110;2024-02-21T13:32:40;3.03;;;1.30;;
10677;SDS011;5387;48.722;9.110;2024-02-21T13:35:07;2.90;;;1.50;;
10677;SDS011;5387;48.722;9.110;2024-02-21T13:37:38;4.43;;;1.40;;
10677;SDS011;5387;48.722;9.110;2024-02-21T13:40:05;3.28;;;1.30;;
10677;SDS011;5387;48.722;9.110;2024-02-21T13:42:34;1.58;;;1.20;;
10677;SDS011;5387;48.722;9.110;2024-02-21T13:45:00;2.45;;;1.42;;
10677;SDS011;5387;48.722;9.110;2024-02-21T13:47:28;4.53;;;1.55;;
10677;SDS011;5387;48.722;9.110;2024-02-21T13:49:55;2.58;;;1.35;;
10677;SDS011;5387;48.722;9.110;2024-02-21T13:52:22;1.70;;;1.23;;
10677;SDS011;5387;48.722;9.110;2024-02-21T13:54:52;3.03;;;1.30;;
10677;SDS011;5387;48.722;9.110;2024-02-21T13:57:19;2.03;;;1.08;;
10677;SDS011;5387;48.722;9.110;2024-02-21T13:59:46;5.10;;;1.38;;
10677;SDS011;5387;48.722;9.110;2024-02-21T14:02:13;2.80;;;1.20;;
10677;SDS011;5387;48.722;9.110;2024-02-21T14:04:39;3.03;;;2.07;;
10677;SDS011;5387;48.722;9.110;2024-02-21T14:07:07;1.90;;;0.93;;
10677;SDS011;5387;48.722;9.110;2024-02-21T14:09:34;4.83;;;1.77;;
10677;SDS011;5387;48.722;9.110;2024-02-21T14:12:02;2.38;;;1.40;;
10677;SDS011;5387;48.722;9.110;2024-02-21T14:14:33;3.93;;;1.20;;
10677;SDS011;5387;48.722;9.110;2024-02-21T14:17:00;1.50;;;1.20;;
10677;SDS011;5387;48.722;9.110;2024-02-21T14:19:26;1.67;;;1.50;;
10677;SDS011;5387;48.722;9.110;2024-02-21T14:21:54;3.42;;;1.27;;
10677;SDS011;5387;48.722;9.110;2024-02-21T14:24:21;1.60;;;1.30;;
10677;SDS011;5387;48.722;9.110;2024-02-21T14:26:48;2.35;;;1.05;;
10677;SDS011;5387;48.722;9.110;2024-02-21T14:29:16;1.83;;;1.00;;
10677;SDS011;5387;48.722;9.110;2024-02-21T14:31:43;2.10;;;1.20;;
10677;SDS011;5387;48.722;9.110;2024-02-21T14:34:10;3.38;;;1.27;;
10677;SDS011;5387;48.722;9.110;2024-02-21T14:36:36;1.50;;;1.23;;
10677;SDS011;5387;48.722;9.110;2024-02-21T14:39:03;1.30;;;1.15;;
10677;SDS011;5387;48.722;9.110;2024-02-21T14:41:30;1.17;;;0.87;;
10677;SDS011;5387;48.722;9.110;2024-02-21T14:43:57;1.30;;;1.20;;
10677;SDS011;5387;48.722;9.110;2024-02-21T14:46:26;1.10;;;1.00;;
10677;SDS011;5387;48.722;9.110;2024-02-21T14:48:54;2.83;;;1.20;;
10677;SDS011;5387;48.722;9.110;2024-02-21T14:51:20;3.00;;;1.50;;
10677;SDS011;5387;48.722;9.110;2024-02-21T14:53:47;1.13;;;1.00;;
10677;SDS011;5387;48.722;9.110;2024-02-21T14:56:14;5.10;;;1.27;;
10677;SDS011;5387;48.722;9.110;2024-02-21T14:58:42;4.23;;;1.10;;
10677;SDS011;5387;48.722;9.110;2024-02-21T15:01:09;1.40;;;1.00;;
10677;SDS011;5387;48.722;9.110;2024-02-21T15:03:39;1.50;;;1.37;;